Time;durP1;ratioP1;P1;durP2;ratioP2;P2;SDS_P1;SDS_P2;PMS_P1;PMS_P2;Temp;Humidity;BMP_temperature;BMP_pressure;BME280_temperature;BME280_humidity;BME280_pressure;Samples;Min_cycle;Max_cycle;Signal;HPM_P1;HPM_P2
2023/08/06 00:00:41;;;;;;;6.68;4.10;;;17.00;99.90;;;17.47;78.40;99448.94;4926144;29;20086;-89
2023/08/06 00:03:09;;;;;;;7.00;3.22;;;17.00;99.90;;;17.45;78.42;99448.44;4920933;29;20044;-89
2023/08/06 00:05:37;;;;;;;5.95;4.10;;;17.00;99.90;;;17.45;78.15;99457.31;4938848;29;20099;-89
2023/08/06 00:08:05;;;;;;;5.95;4.05;;;17.00;99.90;;;17.47;78.26;99463.25;4933465;29;20047;-89
2023/08/06 00:10:33;;;;;;;6.70;3.92;;;17.00;99.90;;;17.46;78.40;99458.91;4935993;29;20509;-89
2023/08/06 00:13:00;;;;;;;4.78;3.35;;;17.00;99.90;;;17.47;78.83;99449.78;4928281;29;20138;-89
2023/08/06 00:15:27;;;;;;;9.10;4.43;;;17.00;99.90;;;17.45;78.57;99448.44;4925727;29;20043;-89
2023/08/06 00:17:55;;;;;;;6.05;3.75;;;17.00;99.90;;;17.43;78.83;99454.09;4924169;29;20131;-89
2023/08/06 00:20:22;;;;;;;6.53;3.55;;;16.90;99.90;;;17.43;79.10;99443.31;4931268;29;20079;-89
2023/08/06 00:22:51;;;;;;;6.22;3.85;;;16.90;99.90;;;17.44;79.02;99447.63;4941363;29;20106;-89
2023/08/06 00:25:18;;;;;;;10.30;4.43;;;17.00;99.90;;;17.43;78.89;99437.94;4929904;29;20142;-89
2023/08/06 00:27:45;;;;;;;8.20;3.60;;;16.90;99.90;;;17.42;79.17;99430.09;4933614;29;20074;-89
2023/08/06 00:30:13;;;;;;;6.28;3.50;;;16.90;99.90;;;17.42;79.16;99427.41;4925770;29;20086;-89
2023/08/06 00:32:40;;;;;;;9.02;3.65;;;16.90;99.90;;;17.39;79.24;99428.78;4926520;29;20046;-89
2023/08/06 00:35:08;;;;;;;7.28;4.00;;;16.90;99.90;;;17.38;79.26;99424.50;4923632;29;20169;-89
2023/08/06 00:37:35;;;;;;;5.40;3.65;;;16.90;99.90;;;17.36;79.26;99429.34;4922951;29;20501;-89
2023/08/06 00:40:06;;;;;;;10.35;4.00;;;16.90;99.90;;;17.36;79.13;99423.16;4924896;29;20067;-89
2023/08/06 00:42:34;;;;;;;7.10;3.53;;;16.90;99.90;;;17.35;79.39;99418.84;4923454;29;20067;-89
2023/08/06 00:45:01;;;;;;;9.20;3.95;;;16.90;99.90;;;17.33;79.05;99408.38;4940148;29;20039;-89
2023/08/06 00:47:29;;;;;;;7.53;3.60;;;16.90;99.90;;;17.34;79.37;99415.38;4930605;29;20119;-89
2023/08/06 00:49:56;;;;;;;10.48;3.97;;;16.90;99.90;;;17.37;79.03;99405.88;4930408;29;20075;-89
2023/08/06 00:52:24;;;;;;;6.70;3.60;;;16.90;99.90;;;17.37;78.99;99408.59;4931407;29;20138;-89
2023/08/06 00:54:51;;;;;;;5.97;3.78;;;16.90;99.90;;;17.38;79.04;99412.91;4940877;29;20075;-89
2023/08/06 00:57:21;;;;;;;9.13;3.97;;;16.90;99.90;;;17.38;79.13;99410.22;4931360;29;20063;-89
2023/08/06 00:59:49;;;;;;;8.10;3.67;;;16.90;99.90;;;17.36;79.54;99405.09;4929888;29;20433;-89
2023/08/06 01:02:17;;;;;;;10.00;4.10;;;16.90;99.90;;;17.35;79.27;99402.69;4930125;29;20501;-89
2023/08/06 01:04:44;;;;;;;7.97;3.38;;;16.90;99.90;;;17.34;79.30;99404.59;4928898;29;20044;-89
2023/08/06 01:07:26;;;;;;;7.32;4.15;;;16.90;99.90;;;17.35;79.07;99400.00;4932134;29;20047;-89
2023/08/06 01:10:16;;;;;;;7.97;3.20;;;16.90;99.90;;;17.36;79.21;99407.78;4925563;28;20071;-89
2023/08/06 01:12:58;;;;;;;5.90;3.58;;;16.90;99.90;;;17.35;79.10;99406.19;4945730;29;20044;-89
2023/08/06 01:15:31;;;;;;;6.70;3.63;;;16.90;99.90;;;17.34;79.16;99399.19;4934527;28;20523;-89
2023/08/06 01:17:59;;;;;;;8.07;3.80;;;16.90;99.90;;;17.33;79.13;99397.59;4941112;29;20501;-89
2023/08/06 01:20:31;;;;;;;5.65;3.67;;;16.90;99.90;;;17.32;79.33;99398.66;4933987;29;20045;-89
2023/08/06 01:22:58;;;;;;;7.75;3.40;;;16.90;99.90;;;17.32;79.57;99404.03;4933842;29;20055;-89
2023/08/06 01:25:33;;;;;;;6.13;3.70;;;16.90;99.90;;;17.32;79.50;99401.34;4951877;29;20044;-89
2023/08/06 01:28:08;;;;;;;7.22;4.18;;;16.90;99.90;;;17.31;79.29;99394.34;4936911;29;20076;-89
2023/08/06 01:30:38;;;;;;;6.70;3.80;;;16.90;99.90;;;17.32;79.27;99395.94;4925111;29;20075;-89
2023/08/06 01:33:10;;;;;;;5.72;3.35;;;16.90;99.90;;;17.32;79.27;99395.94;4942952;29;20130;-89
2023/08/06 01:35:40;;;;;;;5.80;3.50;;;16.90;99.90;;;17.33;79.14;99394.09;4929618;29;20052;-89
2023/08/06 01:38:07;;;;;;;8.05;4.00;;;16.90;99.90;;;17.33;79.18;99397.59;4930073;29;20080;-89
2023/08/06 01:40:35;;;;;;;7.35;3.90;;;16.90;99.90;;;17.34;79.25;99398.38;4920987;29;20040;-89
2023/08/06 01:43:02;;;;;;;5.90;3.35;;;16.90;99.90;;;17.33;79.00;99391.41;4936284;29;20110;-89
2023/08/06 01:45:29;;;;;;;9.25;3.88;;;16.90;99.90;;;17.33;79.10;99391.41;4920592;29;20048;-89
2023/08/06 01:47:56;;;;;;;6.80;3.58;;;16.90;99.90;;;17.32;79.13;99387.88;4922427;29;20043;-89
2023/08/06 01:50:25;;;;;;;7.03;3.50;;;16.90;99.90;;;17.31;79.10;99382.78;4917315;29;20127;-89
2023/08/06 01:52:54;;;;;;;9.23;3.85;;;16.90;99.90;;;17.30;79.54;99381.97;4939432;29;20534;-89
2023/08/06 01:55:21;;;;;;;7.55;3.95;;;16.90;99.90;;;17.30;79.33;99381.97;4920247;29;20052;-89
2023/08/06 01:57:49;;;;;;;7.15;3.70;;;16.90;99.90;;;17.30;79.58;99379.28;4931852;29;20653;-89
2023/08/06 02:00:16;;;;;;;6.00;3.75;;;16.90;99.90;;;17.31;79.55;99372.00;4941134;29;20472;-89
2023/08/06 02:02:44;;;;;;;9.45;3.60;;;16.90;99.90;;;17.30;79.81;99375.78;4926720;29;20048;-89
2023/08/06 02:05:11;;;;;;;7.97;3.90;;;16.90;99.90;;;17.28;79.45;99372.56;4941139;29;20060;-89
2023/08/06 02:07:40;;;;;;;6.32;3.50;;;16.90;99.90;;;17.28;79.82;99376.06;4931621;29;20040;-89
2023/08/06 02:10:10;;;;;;;7.00;4.15;;;16.80;99.90;;;17.26;79.15;99372.84;4942929;29;20520;-89
2023/08/06 02:12:38;;;;;;;7.95;3.78;;;16.80;99.90;;;17.27;79.49;99371.75;4941349;29;20059;-89
2023/08/06 02:15:07;;;;;;;5.43;3.60;;;16.80;99.90;;;17.26;79.73;99364.75;4924831;29;20495;-89
2023/08/06 02:17:34;;;;;;;5.97;3.80;;;16.80;99.90;;;17.23;79.35;99360.75;4941958;29;20713;-89
2023/08/06 02:20:01;;;;;;;7.80;3.67;;;16.80;99.90;;;17.20;79.60;99366.69;4923555;29;20048;-89
2023/08/06 02:22:29;;;;;;;8.52;3.60;;;16.80;99.90;;;17.20;79.83;99361.31;4929420;29;20044;-89
2023/08/06 02:24:56;;;;;;;5.53;3.70;;;16.80;99.90;;;17.21;79.82;99362.09;4948649;29;20139;-89
2023/08/06 02:27:25;;;;;;;10.65;3.53;;;16.80;99.90;;;17.17;79.73;99367.25;4930649;29;20067;-89
2023/08/06 02:29:53;;;;;;;7.85;3.75;;;16.80;99.90;;;17.15;80.03;99355.16;4919014;29;20086;-89
2023/08/06 02:32:20;;;;;;;8.70;3.53;;;16.70;99.90;;;17.15;80.05;99358.66;4915094;29;20072;-89
2023/08/06 02:34:47;;;;;;;7.97;4.13;;;16.70;99.90;;;17.17;79.70;99363.75;4927595;29;20135;-89
2023/08/06 02:37:15;;;;;;;10.98;3.90;;;16.80;99.90;;;17.15;79.58;99355.94;4933830;29;20048;-89
2023/08/06 02:39:43;;;;;;;7.85;3.65;;;16.80;99.90;;;17.16;79.57;99352.16;4935197;29;20138;-89
2023/08/06 02:42:10;;;;;;;4.82;3.60;;;16.80;99.90;;;17.16;79.50;99354.06;4946523;29;20068;-89
2023/08/06 02:44:39;;;;;;;6.15;3.83;;;16.70;99.90;;;17.16;79.50;99341.38;4934920;29;20039;-89
2023/08/06 02:47:07;;;;;;;9.02;3.80;;;16.80;99.90;;;17.18;79.38;99349.22;4935657;29;20091;-89
2023/08/06 02:49:34;;;;;;;11.35;3.95;;;16.80;99.90;;;17.16;79.17;99340.59;4929087;29;20039;-89
2023/08/06 02:52:02;;;;;;;8.25;3.63;;;16.80;99.90;;;17.14;78.97;99346.25;4927605;29;20079;-89
2023/08/06 02:54:29;;;;;;;7.95;3.78;;;16.70;99.90;;;17.14;78.90;99340.06;4941858;29;20040;-89
2023/08/06 02:56:57;;;;;;;6.03;3.95;;;16.70;99.90;;;17.12;78.79;99336.84;4924209;29;20139;-89
2023/08/06 02:59:32;;;;;;;7.63;4.15;;;16.70;99.90;;;17.12;79.03;99332.25;4932560;29;20048;-89
2023/08/06 03:02:11;;;;;;;7.00;3.58;;;16.70;99.90;;;17.10;79.02;99329.06;4940169;29;20051;-89
2023/08/06 03:04:55;;;;;;;9.50;3.70;;;16.60;99.90;;;17.10;78.97;99329.06;4919958;29;20579;-89
2023/08/06 03:07:26;;;;;;;12.73;4.28;;;16.60;99.90;;;17.08;78.93;99311.53;4929911;29;20050;-89
2023/08/06 03:09:58;;;;;;;8.55;3.78;;;16.60;99.90;;;17.07;78.97;99318.81;4927846;29;20505;-89
2023/08/06 03:12:26;;;;;;;6.82;3.80;;;16.60;99.90;;;17.05;78.97;99317.53;4926366;29;20505;-89
2023/08/06 03:14:53;;;;;;;8.88;3.72;;;16.60;99.90;;;17.05;78.96;99312.94;4930267;29;20102;-89
2023/08/06 03:17:22;;;;;;;6.97;3.50;;;16.60;99.90;;;17.05;78.41;99312.94;4938510;28;20447;-89
2023/08/06 03:19:50;;;;;;;5.80;3.30;;;16.60;99.90;;;17.05;78.34;99314.81;4921638;29;20051;-89
2023/08/06 03:22:18;;;;;;;8.38;3.60;;;16.60;99.90;;;17.03;78.40;99311.59;4936768;29;20046;-89
2023/08/06 03:24:46;;;;;;;7.65;3.42;;;16.60;99.90;;;17.04;78.17;99315.91;4912337;29;20040;-89
2023/08/06 03:27:14;;;;;;;6.70;3.55;;;16.60;99.90;;;17.03;77.70;99317.81;4933570;29;20571;-89
2023/08/06 03:29:43;;;;;;;6.05;3.30;;;16.50;99.90;;;17.01;77.44;99308.38;4924717;29;20059;-89
2023/08/06 03:32:10;;;;;;;7.07;3.58;;;16.50;99.90;;;16.99;77.28;99305.97;4915346;29;20047;-89
2023/08/06 03:34:39;;;;;;;6.53;3.80;;;16.50;99.90;;;17.01;77.50;99313.78;4929421;29;20091;-89
2023/08/06 03:37:07;;;;;;;8.10;3.60;;;16.50;99.90;;;16.98;77.56;99310.56;4917749;29;20559;-89
2023/08/06 03:39:35;;;;;;;7.93;3.65;;;16.50;99.90;;;16.98;77.26;99312.44;4950079;23;20143;-88
2023/08/06 03:42:03;;;;;;;7.22;3.22;;;16.50;99.90;;;16.92;77.23;99311.69;4932134;29;20492;-87
2023/08/06 03:44:30;;;;;;;9.90;3.83;;;16.50;99.90;;;16.91;77.68;99309.28;4926724;29;20036;-86
2023/08/06 03:46:58;;;;;;;8.68;3.55;;;16.40;99.90;;;16.92;77.83;99308.19;4933929;29;20048;-86
2023/08/06 03:49:25;;;;;;;7.45;4.00;;;16.50;99.90;;;16.88;78.33;99307.94;4950962;29;20044;-86
2023/08/06 03:51:54;;;;;;;5.53;3.45;;;16.40;99.90;;;16.90;78.01;99308.47;4931166;29;20564;-86
2023/08/06 03:54:21;;;;;;;9.70;3.28;;;16.40;99.90;;;16.88;78.36;99302.53;4917535;29;20136;-87
2023/08/06 03:56:49;;;;;;;9.75;3.20;;;16.40;99.90;;;16.87;78.47;99305.53;4916889;29;20048;-86
2023/08/06 03:59:17;;;;;;;5.80;3.13;;;16.40;99.90;;;16.87;78.97;99298.25;4930000;29;20051;-87
2023/08/06 04:01:46;;;;;;;6.43;3.35;;;16.40;99.90;;;16.88;78.76;99305.25;4931931;29;20044;-87
2023/08/06 04:04:14;;;;;;;7.47;3.20;;;16.40;99.90;;;16.87;79.11;99303.63;4905841;29;20620;-87
2023/08/06 04:06:41;;;;;;;4.30;3.08;;;16.40;99.90;;;16.86;79.21;99295.84;4912296;29;20584;-87
2023/08/06 04:09:10;;;;;;;6.47;3.17;;;16.40;99.90;;;16.88;79.23;99302.53;4912485;29;20071;-87
2023/08/06 04:11:38;;;;;;;6.70;3.60;;;16.50;99.90;;;16.86;78.87;99295.84;4913482;29;20041;-87
2023/08/06 04:14:05;;;;;;;6.13;3.28;;;16.40;99.90;;;16.86;79.19;99293.97;4914880;29;20040;-87
2023/08/06 04:16:32;;;;;;;7.53;3.40;;;16.50;99.90;;;16.87;79.23;99297.44;4929212;29;20106;-87
2023/08/06 04:19:00;;;;;;;7.10;3.45;;;16.50;99.90;;;16.88;79.49;99299.84;4907194;29;20055;-87
2023/08/06 04:21:27;;;;;;;6.70;3.55;;;16.50;99.90;;;16.87;79.63;99298.25;4914793;29;20044;-87
2023/08/06 04:23:54;;;;;;;7.32;3.65;;;16.40;99.90;;;16.87;79.46;99295.56;4915305;29;20119;-87
2023/08/06 04:26:23;;;;;;;7.95;3.40;;;16.40;99.90;;;16.83;79.32;99286.44;4914575;29;20059;-87
2023/08/06 04:28:51;;;;;;;6.22;3.75;;;16.40;99.90;;;16.82;79.93;99295.59;4915124;29;20040;-87
2023/08/06 04:31:18;;;;;;;5.95;3.30;;;16.40;99.90;;;16.85;80.28;99295.03;4914997;29;20411;-87
2023/08/06 04:33:46;;;;;;;6.00;3.40;;;16.40;99.90;;;16.87;80.11;99292.88;4915495;29;20048;-87
2023/08/06 04:36:15;;;;;;;4.78;3.08;;;16.50;99.90;;;16.87;80.24;99290.16;4921618;29;20119;-87
2023/08/06 04:38:45;;;;;;;6.60;3.33;;;16.50;99.90;;;16.88;80.29;99291.78;4908738;29;20091;-87
2023/08/06 04:41:13;;;;;;;7.80;3.13;;;16.50;99.90;;;16.91;80.22;99293.13;4915426;29;20052;-88
2023/08/06 04:43:42;;;;;;;5.00;3.13;;;16.50;99.90;;;16.94;80.28;99293.38;4911188;29;20059;-88
2023/08/06 04:46:10;;;;;;;6.05;3.20;;;16.50;99.90;;;16.94;80.59;99296.06;4905038;29;20605;-88
2023/08/06 04:48:37;;;;;;;6.50;3.25;;;16.60;99.90;;;16.97;80.54;99292.78;4931014;29;20504;-88
2023/08/06 04:51:04;;;;;;;7.00;3.72;;;16.60;99.90;;;16.99;80.21;99295.22;4916512;29;20043;-88
2023/08/06 04:53:32;;;;;;;5.88;3.33;;;16.60;99.90;;;17.03;80.48;99303.50;4914876;29;20046;-87
2023/08/06 04:55:59;;;;;;;8.25;3.25;;;16.60;99.90;;;17.05;80.30;99296.78;4911646;29;20064;-87
2023/08/06 04:58:27;;;;;;;5.82;3.30;;;16.70;99.90;;;17.10;80.10;99295.91;4915442;29;20040;-87
2023/08/06 05:00:57;;;;;;;4.55;3.10;;;16.70;99.90;;;17.13;80.50;99295.34;4915324;29;20044;-85
2023/08/06 05:03:25;;;;;;;8.73;4.00;;;16.80;99.90;;;17.17;80.24;99297.19;4916070;29;20107;-84
2023/08/06 05:05:52;;;;;;;8.40;3.53;;;16.80;99.90;;;17.24;79.98;99302.25;4916191;29;20080;-86
2023/08/06 05:08:19;;;;;;;9.65;3.40;;;16.90;99.90;;;17.25;80.31;99299.28;4915086;29;20056;-86
2023/08/06 05:10:47;;;;;;;5.97;3.03;;;16.90;99.90;;;17.25;81.15;99298.47;4915379;29;20056;-86
2023/08/06 05:13:14;;;;;;;7.05;3.63;;;16.90;99.90;;;17.24;81.48;99294.19;4912335;29;20049;-86
2023/08/06 05:15:45;;;;;;;5.63;3.22;;;16.90;99.90;;;17.32;81.14;99300.81;4910707;29;20091;-87
2023/08/06 05:18:13;;;;;;;8.15;3.40;;;17.00;99.90;;;17.41;79.97;99305.31;4925365;29;20437;-87
2023/08/06 05:20:43;;;;;;;7.47;3.63;;;17.10;99.90;;;17.55;80.55;99307.34;4926520;29;20037;-87
2023/08/06 05:23:10;;;;;;;7.35;3.70;;;17.30;99.90;;;17.74;79.78;99308.25;4915718;29;20139;-87
2023/08/06 05:25:38;;;;;;;7.15;3.03;;;17.50;99.90;;;17.87;78.21;99310.25;4912789;29;20075;-87
2023/08/06 05:28:06;;;;;;;6.80;3.22;;;17.70;99.90;;;17.99;77.37;99307.94;4913978;29;20044;-87
2023/08/06 05:30:37;;;;;;;9.63;3.10;;;17.80;99.90;;;18.09;77.93;99317.81;4913762;29;20051;-87
2023/08/06 05:33:04;;;;;;;8.25;3.00;;;18.00;99.90;;;18.08;77.35;99318.09;4925011;29;20136;-87
2023/08/06 05:35:32;;;;;;;5.72;3.28;;;18.10;99.90;;;18.05;77.45;99315.97;4913057;29;20489;-87
2023/08/06 05:38:00;;;;;;;9.55;3.85;;;18.00;99.90;;;17.97;77.96;99326.31;4926772;29;20552;-87
2023/08/06 05:40:27;;;;;;;5.93;3.03;;;17.90;99.90;;;17.88;78.24;99319.16;4913076;29;20052;-87
2023/08/06 05:42:55;;;;;;;6.82;3.13;;;17.80;99.90;;;17.85;78.50;99320.50;4913783;29;20151;-86
2023/08/06 05:45:23;;;;;;;6.88;3.20;;;17.70;99.90;;;17.82;78.11;99321.09;4926774;29;20048;-86
2023/08/06 05:47:50;;;;;;;12.00;3.50;;;17.70;99.90;;;17.82;78.84;99333.78;4904967;29;20395;-86
2023/08/06 05:50:18;;;;;;;5.43;3.13;;;17.60;99.90;;;17.79;79.44;99327.06;4911024;29;20048;-87
2023/08/06 05:52:47;;;;;;;8.15;3.30;;;17.60;99.90;;;17.77;79.77;99329.25;4911256;29;20041;-88
2023/08/06 05:55:15;;;;;;;6.93;3.03;;;17.50;99.90;;;17.75;79.32;99337.63;4921525;29;20425;-88
2023/08/06 05:57:42;;;;;;;5.28;3.00;;;17.50;99.90;;;17.74;79.21;99335.22;4916666;29;20046;-86
2023/08/06 06:00:11;;;;;;;8.23;3.05;;;17.50;99.90;;;17.73;79.11;99325.53;4916193;29;21786;-87
2023/08/06 06:02:41;;;;;;;11.13;3.28;;;17.50;99.90;;;17.73;79.86;99337.09;4914136;29;20047;-87
2023/08/06 06:05:09;;;;;;;8.98;2.95;;;17.50;99.90;;;17.72;79.94;99340.06;4930268;29;20088;-87
2023/08/06 06:07:36;;;;;;;5.85;2.95;;;17.50;99.90;;;17.68;78.61;99339.03;4917611;29;20494;-87
2023/08/06 06:10:07;;;;;;;5.20;2.80;;;17.40;99.90;;;17.68;79.33;99339.03;4917580;29;20040;-87
2023/08/06 06:12:34;;;;;;;5.93;3.15;;;17.40;99.90;;;17.63;79.22;99339.88;4917329;29;20082;-87
2023/08/06 06:15:01;;;;;;;5.43;2.80;;;17.40;99.90;;;17.61;79.25;99338.56;4906624;29;20064;-87
2023/08/06 06:17:30;;;;;;;8.10;2.95;;;17.30;99.90;;;17.64;80.05;99343.38;4912358;29;20059;-88
2023/08/06 06:19:57;;;;;;;8.13;3.00;;;17.30;99.90;;;17.65;79.91;99344.97;4919882;29;20054;-87
2023/08/06 06:22:24;;;;;;;7.13;2.80;;;17.40;99.90;;;17.63;80.33;99345.28;4910050;29;20080;-87
2023/08/06 06:24:51;;;;;;;9.38;3.60;;;17.40;99.90;;;17.65;80.24;99355.78;4913284;29;20374;-88
2023/08/06 06:27:20;;;;;;;6.13;2.90;;;17.40;99.90;;;17.60;79.38;99342.34;4914366;29;20048;-87
2023/08/06 06:29:47;;;;;;;5.40;2.92;;;17.40;99.90;;;17.64;79.87;99346.06;4917454;29;20040;-85
2023/08/06 06:32:15;;;;;;;5.10;2.63;;;17.40;99.90;;;17.64;79.26;99348.78;4915634;29;20151;-86
2023/08/06 06:34:42;;;;;;;8.18;3.00;;;17.40;99.90;;;17.59;78.95;99348.81;4909129;29;20140;-85
2023/08/06 06:37:09;;;;;;;4.43;2.72;;;17.40;99.90;;;17.56;79.04;99354.78;4915707;29;20044;-85
2023/08/06 06:39:36;;;;;;;5.38;2.75;;;17.40;99.90;;;17.61;80.07;99358.22;4916115;29;20144;-85
2023/08/06 06:42:05;;;;;;;6.80;2.63;;;17.40;99.90;;;17.69;80.21;99354.91;4918498;29;20040;-85
2023/08/06 06:44:39;;;;;;;8.70;2.53;;;17.50;99.90;;;17.77;79.67;99360.81;4913593;29;20071;-85
2023/08/06 06:47:07;;;;;;;6.72;2.72;;;17.60;99.90;;;17.87;80.76;99358.00;4914290;29;20484;-86
2023/08/06 06:49:34;;;;;;;6.65;2.90;;;17.70;99.90;;;17.90;80.35;99352.81;4913767;29;20047;-86
2023/08/06 06:52:01;;;;;;;5.82;3.15;;;17.70;99.90;;;17.94;78.70;99358.47;4912624;29;20083;-86
2023/08/06 06:54:28;;;;;;;5.90;3.00;;;17.90;99.90;;;18.01;79.61;99354.34;4918670;29;20514;-85
2023/08/06 06:56:56;;;;;;;6.47;2.75;;;17.90;99.90;;;17.99;78.77;99351.09;4919178;29;20091;-85
2023/08/06 06:59:23;;;;;;;6.25;2.80;;;17.90;99.90;;;18.05;79.86;99353.75;4930387;29;20075;-89
2023/08/06 07:01:52;;;;;;;4.72;2.53;;;18.00;99.90;;;18.09;79.65;99358.28;4910764;29;20044;-88
2023/08/06 07:04:19;;;;;;;6.38;3.10;;;18.00;99.90;;;18.14;79.77;99352.03;4916416;29;20048;-89
2023/08/06 07:06:46;;;;;;;7.85;2.50;;;18.10;99.90;;;18.10;78.07;99345.59;4914885;29;20382;-88
2023/08/06 07:09:14;;;;;;;8.40;2.65;;;18.10;99.90;;;18.14;79.10;99354.72;4917163;29;20205;-89
2023/08/06 07:11:43;;;;;;;7.85;2.67;;;18.10;99.90;;;18.15;78.84;99350.91;4913127;29;20041;-89
2023/08/06 07:14:10;;;;;;;10.48;2.95;;;18.10;99.90;;;18.22;79.69;99360.28;4923782;29;20044;-89
2023/08/06 07:16:38;;;;;;;6.75;2.58;;;18.20;99.90;;;18.24;78.05;99357.28;4912648;29;20553;-89
2023/08/06 07:19:06;;;;;;;5.93;2.25;;;18.20;99.90;;;18.23;78.76;99358.38;4925651;29;20047;-89
2023/08/06 07:21:34;;;;;;;4.72;2.30;;;18.20;99.90;;;18.28;78.43;99359.13;4923669;29;20084;-91
2023/08/06 07:24:01;;;;;;;8.32;2.50;;;18.30;99.90;;;18.36;79.48;99359.59;4917812;29;20130;-85
2023/08/06 07:26:29;;;;;;;5.63;3.55;;;18.40;99.90;;;18.39;78.69;99361.69;4918535;29;20036;-84
2023/08/06 07:28:56;;;;;;;7.65;3.75;;;18.40;99.90;;;18.41;77.68;99368.41;4913479;29;20041;-84
2023/08/06 07:31:23;;;;;;;4.97;2.70;;;18.40;99.90;;;18.41;76.20;99367.63;4914367;29;20048;-84
2023/08/06 07:33:50;;;;;;;4.78;2.60;;;18.40;99.90;;;18.38;77.58;99365.50;4915195;29;20742;-84
2023/08/06 07:36:19;;;;;;;4.32;2.53;;;18.40;99.90;;;18.36;77.48;99359.59;4900121;29;20131;-82
2023/08/06 07:38:48;;;;;;;5.03;2.63;;;18.40;99.90;;;18.43;78.05;99371.63;4912299;29;20119;-83
2023/08/06 07:41:15;;;;;;;6.65;2.72;;;18.50;99.90;;;18.48;79.40;99368.84;4913645;29;20104;-83
2023/08/06 07:43:43;;;;;;;4.60;2.25;;;18.50;99.90;;;18.45;78.69;99371.34;4914335;29;20040;-82
2023/08/06 07:46:11;;;;;;;4.22;2.13;;;18.50;99.90;;;18.45;79.14;99368.66;4915823;29;20048;-81
2023/08/06 07:48:39;;;;;;;3.85;2.13;;;18.50;99.90;;;18.47;77.63;99372.66;4914800;29;20048;-81
2023/08/06 07:51:06;;;;;;;6.07;2.10;;;18.50;99.90;;;18.48;77.71;99376.97;4916968;29;20048;-85
2023/08/06 07:53:35;;;;;;;8.00;2.33;;;18.50;99.90;;;18.50;78.35;99374.00;4914160;29;20032;-81
2023/08/06 07:56:03;;;;;;;4.45;2.25;;;18.50;99.90;;;18.52;78.46;99375.28;4914856;29;20518;-81
2023/08/06 07:58:31;;;;;;;9.68;2.85;;;18.50;99.90;;;18.58;78.64;99380.63;4916057;29;20040;-81
2023/08/06 08:00:58;;;;;;;4.57;2.28;;;18.60;99.90;;;18.56;77.71;99383.63;4916163;29;20051;-81
2023/08/06 08:03:26;;;;;;;8.05;2.92;;;18.60;99.90;;;18.55;77.54;99381.22;4916854;29;20127;-81
2023/08/06 08:05:58;;;;;;;4.60;2.38;;;18.60;99.90;;;18.44;75.40;99388.63;4916667;29;20517;-81
2023/08/06 08:08:26;;;;;;;7.10;2.45;;;18.40;99.90;;;18.43;75.41;99385.13;4909364;29;20041;-82
2023/08/06 08:10:58;;;;;;;6.47;2.33;;;18.40;99.90;;;18.41;76.63;99389.22;4916800;29;20051;-82
2023/08/06 08:13:25;;;;;;;5.78;2.42;;;18.40;99.90;;;18.43;76.64;99379.72;4917285;29;20123;-85
2023/08/06 08:15:58;;;;;;;7.45;2.45;;;18.40;99.90;;;18.43;77.67;99382.44;4910911;29;20082;-82
2023/08/06 08:18:26;;;;;;;4.60;2.35;;;18.40;99.90;;;18.47;78.81;99383.47;4915148;29;20433;-82
2023/08/06 08:20:53;;;;;;;8.80;2.67;;;18.40;99.90;;;18.48;77.79;99387.75;4913239;29;20510;-83
2023/08/06 08:23:20;;;;;;;5.35;1.90;;;18.40;99.90;;;18.46;76.79;99389.16;4914480;29;20039;-84
2023/08/06 08:25:48;;;;;;;6.75;2.20;;;18.40;99.90;;;18.51;77.79;99391.78;4915238;29;20127;-84
2023/08/06 08:28:17;;;;;;;5.38;2.20;;;18.50;99.90;;;18.50;77.26;99393.69;4913481;29;20095;-85
2023/08/06 08:30:44;;;;;;;4.88;2.17;;;18.50;99.90;;;18.53;76.12;99392.28;4919781;29;20046;-87
2023/08/06 08:33:11;;;;;;;3.72;2.08;;;18.50;99.90;;;18.55;77.08;99389.31;4915368;29;20142;-84
2023/08/06 08:35:38;;;;;;;4.25;1.90;;;18.60;99.90;;;18.56;76.50;99383.63;4914769;29;20051;-85
2023/08/06 08:38:06;;;;;;;6.10;2.03;;;18.60;99.90;;;18.56;76.47;99389.03;4916240;29;20037;-85
2023/08/06 08:40:34;;;;;;;5.35;2.20;;;18.60;99.90;;;18.58;75.84;99388.72;4907231;29;20047;-85
2023/08/06 08:43:02;;;;;;;5.13;2.20;;;18.60;99.90;;;18.59;77.75;99393.03;4923596;29;20076;-85
2023/08/06 08:45:34;;;;;;;5.53;1.95;;;18.60;99.90;;;18.55;75.26;99395.53;4913860;29;20766;-85
2023/08/06 08:48:02;;;;;;;7.75;2.80;;;18.60;99.90;;;18.52;75.21;99388.78;4915933;29;20128;-85
2023/08/06 08:50:30;;;;;;;6.80;2.58;;;18.50;99.90;;;18.55;76.19;99397.41;4913704;29;20048;-85
2023/08/06 08:52:58;;;;;;;4.72;2.35;;;18.50;99.90;;;18.55;76.14;99392.81;4915109;29;20496;-85
2023/08/06 08:55:25;;;;;;;4.75;2.50;;;18.60;99.90;;;18.56;75.39;99399.03;4924239;29;20044;-85
2023/08/06 08:57:52;;;;;;;7.00;2.70;;;18.50;99.90;;;18.57;75.32;99400.63;4916307;29;20067;-85
2023/08/06 09:00:20;;;;;;;4.53;2.00;;;18.60;99.90;;;18.55;73.20;99392.81;4931254;29;20104;-85
2023/08/06 09:02:48;;;;;;;6.55;2.08;;;18.50;99.90;;;18.54;73.39;99399.28;4916633;29;20519;-85
2023/08/06 09:05:17;;;;;;;5.32;2.88;;;18.50;99.90;;;18.57;74.28;99393.31;4915728;29;20147;-85
2023/08/06 09:07:53;;;;;;;5.82;2.70;;;18.60;99.90;;;18.59;72.81;99401.13;4923058;29;20071;-85
2023/08/06 09:10:23;;;;;;;7.70;2.38;;;18.60;99.90;;;18.57;72.04;99406.81;4906797;29;20048;-85
2023/08/06 09:12:53;;;;;;;5.03;2.57;;;18.50;99.90;;;18.58;72.08;99402.22;4911108;29;20100;-85
2023/08/06 09:15:21;;;;;;;6.43;2.47;;;18.50;99.90;;;18.63;73.34;99410.25;4914727;29;20050;-85
2023/08/06 09:17:50;;;;;;;7.93;2.70;;;18.60;99.90;;;18.66;73.94;99406.97;4916193;29;20052;-85
2023/08/06 09:20:18;;;;;;;5.55;2.35;;;18.60;99.90;;;18.65;72.77;99410.78;4910916;29;20139;-85
2023/08/06 09:22:47;;;;;;;5.95;2.40;;;18.60;99.90;;;18.69;74.08;99409.94;4910192;29;20151;-85
2023/08/06 09:25:24;;;;;;;6.43;2.72;;;18.70;99.90;;;18.69;73.16;99412.66;4927112;29;20092;-85
2023/08/06 09:27:51;;;;;;;5.78;3.00;;;18.70;99.90;;;18.73;73.88;99407.44;4910544;29;20505;-85
2023/08/06 09:30:31;;;;;;;5.22;3.22;;;18.80;99.90;;;18.78;73.50;99412.78;4913153;29;20501;-85
2023/08/06 09:33:00;;;;;;;6.47;2.97;;;18.90;99.90;;;18.80;72.50;99410.59;4926359;29;20184;-85
2023/08/06 09:35:30;;;;;;;5.90;3.00;;;18.90;99.90;;;18.79;73.13;99411.72;4910995;29;20067;-85
2023/08/06 09:40:33;;;;;;;8.13;3.10;;;18.90;99.90;;;18.83;73.25;99412.72;4928993;29;20968;-87
2023/08/06 09:43:02;;;;;;;5.43;2.95;;;18.90;99.90;;;18.83;73.64;99418.09;4943338;29;20063;-88
2023/08/06 09:45:33;;;;;;;6.68;3.22;;;18.90;99.90;;;18.82;72.76;99427.31;4929828;29;20046;-88
2023/08/06 09:48:04;;;;;;;4.50;2.75;;;18.90;99.90;;;18.83;73.85;99420.81;4932618;29;20028;-88
2023/08/06 09:50:36;;;;;;;5.65;3.10;;;18.90;99.90;;;18.84;74.46;99422.44;4939749;29;20055;-88
2023/08/06 09:53:05;;;;;;;5.88;3.08;;;18.90;99.90;;;18.88;73.99;99431.53;4930074;29;20052;-88
2023/08/06 09:55:33;;;;;;;7.30;3.17;;;18.90;99.90;;;18.89;75.04;99425.06;4934095;29;20135;-88
2023/08/06 09:58:01;;;;;;;7.45;3.30;;;18.90;99.90;;;18.92;75.12;99431.78;4934679;29;20050;-88
2023/08/06 10:00:30;;;;;;;5.88;3.17;;;18.90;99.90;;;18.93;75.71;99431.47;4934779;29;20054;-88
2023/08/06 10:03:01;;;;;;;7.70;3.60;;;19.00;99.90;;;18.95;75.88;99429.31;4932580;29;20133;-88
2023/08/06 10:05:30;;;;;;;8.80;3.88;;;19.00;99.90;;;18.95;74.25;99439.31;4933215;29;20095;-88
2023/08/06 10:08:00;;;;;;;7.40;3.75;;;19.00;99.90;;;18.93;73.64;99436.88;4937376;29;20078;-88
2023/08/06 10:10:30;;;;;;;6.60;4.03;;;19.00;99.90;;;18.91;72.70;99433.69;4934597;29;20075;-88
2023/08/06 10:13:00;;;;;;;6.05;3.67;;;18.90;99.90;;;18.93;73.57;99439.59;4928815;29;20083;-88
2023/08/06 10:15:31;;;;;;;7.10;4.55;;;19.00;99.90;;;18.96;73.54;99433.59;4934452;29;20048;-87
2023/08/06 10:18:02;;;;;;;8.13;4.72;;;19.00;99.90;;;19.00;72.88;99426.53;4935349;29;20472;-88
2023/08/06 10:20:35;;;;;;;7.22;4.93;;;19.10;99.90;;;19.03;73.85;99433.22;4932994;29;20436;-88
2023/08/06 10:23:04;;;;;;;7.90;4.85;;;19.10;99.90;;;19.06;73.97;99431.84;4930108;29;20115;-88
2023/08/06 10:25:35;;;;;;;10.18;4.90;;;19.10;99.90;;;19.06;73.05;99432.66;4932924;29;20135;-87